Time;durP1;ratioP1;P1;durP2;ratioP2;P2;SDS_P1;SDS_P2;PMS_P1;PMS_P2;Temp;Humidity;BMP_temperature;BMP_pressure;BME280_temperature;BME280_humidity;BME280_pressure;Samples;Min_cycle;Max_cycle;Signal;HPM_P1;HPM_P2
2022/04/26 03:37:40;;;;;;;59.50;8.53;;;6.40;99.90;;;;;;4999232;28;20417;-60
2022/04/26 03:40:08;;;;;;;70.00;8.37;;;6.40;99.90;;;;;;5038593;28;20801;-61
2022/04/26 03:42:35;;;;;;;45.60;7.97;;;6.40;99.90;;;;;;5026538;28;20200;-61
2022/04/26 03:45:02;;;;;;;60.20;8.30;;;6.50;99.90;;;;;;5025390;28;20201;-60
2022/04/26 03:47:29;;;;;;;20.07;7.83;;;6.50;99.90;;;;;;5027680;28;20219;-61
2022/04/26 03:49:57;;;;;;;25.87;8.63;;;6.50;99.90;;;;;;5037434;28;21548;-60
2022/04/26 03:52:24;;;;;;;11.47;6.90;;;6.50;99.90;;;;;;5011944;28;20204;-61
2022/04/26 03:54:51;;;;;;;17.00;7.90;;;6.40;99.90;;;;;;5031710;28;20307;-61
2022/04/26 03:57:19;;;;;;;16.13;8.03;;;6.40;99.90;;;;;;5032000;28;20231;-61
2022/04/26 03:59:45;;;;;;;13.40;7.80;;;6.40;99.90;;;;;;5025670;28;20255;-61
2022/04/26 04:02:13;;;;;;;8.67;6.83;;;6.40;99.90;;;;;;5022854;28;20197;-61
2022/04/26 04:04:39;;;;;;;8.83;6.73;;;6.40;99.90;;;;;;5032809;28;20210;-61
2022/04/26 04:07:08;;;;;;;11.07;7.57;;;6.40;99.90;;;;;;5011999;28;20813;-61
2022/04/26 04:09:35;;;;;;;8.07;6.80;;;6.30;99.90;;;;;;5026665;28;20204;-60
2022/04/26 04:12:02;;;;;;;7.37;6.23;;;6.30;99.90;;;;;;5043532;28;20373;-61
2022/04/26 04:14:29;;;;;;;9.83;6.90;;;6.30;99.90;;;;;;5010998;28;20220;-60
2022/04/26 04:16:57;;;;;;;8.77;6.40;;;6.30;99.90;;;;;;5027995;28;20213;-60
2022/04/26 04:19:25;;;;;;;9.63;6.23;;;6.40;99.90;;;;;;5038728;28;20225;-61
2022/04/26 04:21:53;;;;;;;7.40;6.33;;;6.40;99.90;;;;;;5017229;28;20289;-60
2022/04/26 04:24:21;;;;;;;7.13;5.97;;;6.50;99.90;;;;;;5007033;28;20581;-61
2022/04/26 04:26:49;;;;;;;8.17;6.57;;;6.40;99.90;;;;;;5036497;28;20215;-60
2022/04/26 04:29:17;;;;;;;10.67;6.60;;;6.40;99.90;;;;;;5017360;28;20847;-61
2022/04/26 04:31:45;;;;;;;5.93;5.30;;;6.30;99.90;;;;;;5023924;28;20227;-60
2022/04/26 04:34:12;;;;;;;5.70;5.20;;;6.10;99.90;;;;;;5041089;28;20221;-60
2022/04/26 04:36:39;;;;;;;7.10;5.63;;;5.90;99.90;;;;;;5028963;28;20208;-61
2022/04/26 04:39:06;;;;;;;6.40;5.80;;;6.00;99.90;;;;;;5032358;28;20228;-61
2022/04/26 04:41:36;;;;;;;6.27;5.63;;;6.00;99.90;;;;;;5034247;28;20654;-61
2022/04/26 04:44:06;;;;;;;6.30;5.63;;;5.80;99.90;;;;;;5015868;28;20656;-61
2022/04/26 04:46:33;;;;;;;7.07;5.67;;;5.80;99.90;;;;;;5028255;28;20236;-60
2022/04/26 04:49:00;;;;;;;13.77;5.47;;;5.90;99.90;;;;;;5048015;28;20193;-61
2022/04/26 04:51:27;;;;;;;39.57;6.70;;;5.80;99.90;;;;;;5033568;28;20200;-61
2022/04/26 04:53:56;;;;;;;9.93;5.60;;;5.70;99.90;;;;;;5031850;28;20303;-61
2022/04/26 04:56:25;;;;;;;29.53;6.90;;;5.50;99.90;;;;;;5023677;28;20224;-61
2022/04/26 04:58:54;;;;;;;22.03;6.80;;;5.50;99.90;;;;;;5035305;28;20677;-60
2022/04/26 05:01:22;;;;;;;46.07;6.90;;;5.50;99.90;;;;;;5016814;28;20213;-61
2022/04/26 05:03:49;;;;;;;37.60;5.53;;;5.50;99.90;;;;;;5041749;28;20260;-60
2022/04/26 05:06:16;;;;;;;5.80;4.80;;;5.50;99.90;;;;;;5052485;28;20204;-60
2022/04/26 05:08:43;;;;;;;7.07;5.63;;;5.50;99.90;;;;;;5024507;28;20227;-60
2022/04/26 05:11:11;;;;;;;8.80;5.20;;;5.60;99.90;;;;;;5026556;28;20192;-60
2022/04/26 05:13:38;;;;;;;5.90;4.90;;;5.60;99.90;;;;;;5023471;28;20205;-60
2022/04/26 05:16:06;;;;;;;7.00;5.80;;;5.60;99.90;;;;;;5013035;28;20226;-60
2022/04/26 05:18:33;;;;;;;6.20;4.70;;;5.70;99.90;;;;;;5026744;28;20225;-60
2022/04/26 05:21:00;;;;;;;13.50;6.10;;;5.80;99.90;;;;;;5029618;28;20224;-60
2022/04/26 05:26:12;;;;;;;10.57;6.43;;;6.00;99.90;;;;;;5034562;28;20266;-61
2022/04/26 05:28:38;;;;;;;10.00;6.93;;;6.00;99.90;;;;;;5024775;28;20206;-61
2022/04/26 05:31:08;;;;;;;10.10;5.97;;;6.10;99.90;;;;;;5016602;28;20703;-61
2022/04/26 05:33:35;;;;;;;8.80;6.40;;;6.10;99.90;;;;;;5025107;28;20235;-60
2022/04/26 05:36:02;;;;;;;7.43;6.63;;;6.30;99.90;;;;;;5043676;28;20203;-60
2022/04/26 05:38:29;;;;;;;8.03;6.50;;;6.30;99.90;;;;;;5045511;28;20660;-62
2022/04/26 05:40:55;;;;;;;9.83;7.57;;;6.40;99.90;;;;;;5031600;28;20209;-61
2022/04/26 05:43:22;;;;;;;8.87;6.83;;;6.60;99.90;;;;;;5024458;28;20212;-61
2022/04/26 05:45:49;;;;;;;11.23;8.17;;;6.70;99.90;;;;;;5022778;28;20216;-61
2022/04/26 05:48:18;;;;;;;12.27;9.10;;;6.80;99.90;;;;;;5022934;28;20193;-62
2022/04/26 05:50:45;;;;;;;12.47;9.07;;;6.90;99.90;;;;;;5033779;28;20264;-61
2022/04/26 05:53:12;;;;;;;11.10;8.27;;;6.90;99.90;;;;;;5052135;28;20294;-61
2022/04/26 05:55:39;;;;;;;11.53;8.97;;;7.00;99.90;;;;;;5043307;28;20198;-61
2022/04/26 05:58:06;;;;;;;15.03;8.67;;;7.20;99.90;;;;;;5032099;28;20220;-61
2022/04/26 06:00:33;;;;;;;14.43;9.47;;;7.30;99.90;;;;;;5028205;28;20783;-61
2022/04/26 06:03:00;;;;;;;14.00;9.90;;;7.30;99.90;;;;;;5044977;28;20216;-61
2022/04/26 06:05:29;;;;;;;12.73;9.50;;;7.40;99.90;;;;;;5038651;28;20204;-60
2022/04/26 06:07:56;;;;;;;15.33;9.73;;;7.40;99.90;;;;;;5044493;28;20295;-61
2022/04/26 06:10:23;;;;;;;13.07;9.10;;;7.40;99.90;;;;;;5045025;28;20211;-61
2022/04/26 06:12:50;;;;;;;13.47;8.90;;;7.40;99.90;;;;;;5039326;28;20214;-61
2022/04/26 06:15:17;;;;;;;14.40;8.60;;;7.40;99.90;;;;;;5014401;28;20712;-61
2022/04/26 06:17:45;;;;;;;17.80;8.77;;;7.50;99.90;;;;;;5048101;28;20230;-62
2022/04/26 06:20:13;;;;;;;10.87;8.33;;;7.50;99.90;;;;;;5046622;28;20251;-61
2022/04/26 06:22:41;;;;;;;14.53;9.17;;;7.50;99.90;;;;;;5074817;28;20225;-60
2022/04/26 06:25:09;;;;;;;10.27;7.90;;;7.50;99.90;;;;;;5054029;28;20205;-60
2022/04/26 06:27:35;;;;;;;11.27;8.03;;;7.50;99.90;;;;;;5049189;28;20322;-61
2022/04/26 06:30:03;;;;;;;11.53;7.90;;;7.50;99.90;;;;;;5032524;28;20229;-61
2022/04/26 06:32:30;;;;;;;14.23;8.93;;;7.60;99.90;;;;;;5037747;28;21261;-62
2022/04/26 06:34:56;;;;;;;11.97;8.20;;;7.70;99.90;;;;;;5055105;28;20200;-62
2022/04/26 06:37:24;;;;;;;12.63;8.30;;;7.90;99.90;;;;;;5034190;28;20695;-62
2022/04/26 06:39:53;;;;;;;7.00;5.43;;;7.90;99.90;;;;;;5044348;28;20230;-62
2022/04/26 06:42:20;;;;;;;11.83;7.73;;;8.00;99.90;;;;;;5029783;28;20209;-61
2022/04/26 06:44:47;;;;;;;11.37;6.97;;;8.40;99.90;;;;;;5033731;28;20240;-62
2022/04/26 06:47:14;;;;;;;11.77;6.93;;;8.40;99.90;;;;;;5022033;28;20209;-62
2022/04/26 06:49:41;;;;;;;8.73;6.80;;;8.30;99.90;;;;;;5048584;28;20223;-61
2022/04/26 06:52:08;;;;;;;12.83;7.20;;;8.40;99.90;;;;;;5036631;28;20212;-61
2022/04/26 06:54:35;;;;;;;8.67;6.80;;;8.40;99.90;;;;;;5051850;28;20209;-61
2022/04/26 06:57:03;;;;;;;8.47;6.30;;;8.40;99.90;;;;;;5049781;28;20200;-61
2022/04/26 06:59:30;;;;;;;8.73;6.47;;;8.40;99.90;;;;;;5037019;28;20220;-61
2022/04/26 07:01:57;;;;;;;12.73;6.70;;;8.40;99.90;;;;;;5018970;28;20240;-61
2022/04/26 07:04:24;;;;;;;9.10;6.40;;;8.40;99.90;;;;;;5014327;28;21419;-62
2022/04/26 07:06:51;;;;;;;10.23;6.70;;;8.40;99.90;;;;;;5031623;28;20209;-62
2022/04/26 07:09:19;;;;;;;8.90;6.67;;;8.50;99.90;;;;;;5044266;28;20213;-61
2022/04/26 07:11:46;;;;;;;7.23;6.13;;;8.50;99.90;;;;;;5041029;28;20212;-61
2022/04/26 07:14:15;;;;;;;11.60;7.20;;;8.60;99.90;;;;;;5043895;28;20224;-61
2022/04/26 07:16:41;;;;;;;9.70;7.10;;;8.70;99.90;;;;;;5010489;28;20650;-61
2022/04/26 07:19:08;;;;;;;9.13;6.73;;;8.60;99.90;;;;;;5045859;28;21994;-61
2022/04/26 07:21:36;;;;;;;8.23;6.80;;;8.60;99.90;;;;;;5054755;28;20206;-61
2022/04/26 07:24:04;;;;;;;9.17;6.83;;;8.60;99.90;;;;;;5007445;28;20221;-61
2022/04/26 07:26:31;;;;;;;9.17;6.83;;;8.60;99.90;;;;;;5040336;28;23015;-61
2022/04/26 07:28:58;;;;;;;11.80;7.30;;;8.80;99.90;;;;;;5045007;28;20641;-61
2022/04/26 07:31:26;;;;;;;16.00;7.57;;;8.80;99.90;;;;;;5036473;28;20192;-61
2022/04/26 07:36:38;;;;;;;12.17;7.70;;;9.00;99.90;;;;;;5052719;28;20260;-61
2022/04/26 07:39:06;;;;;;;14.27;7.77;;;9.00;99.90;;;;;;5024069;28;20201;-61
2022/04/26 07:41:33;;;;;;;9.40;6.90;;;9.00;99.90;;;;;;5028792;28;20780;-61
2022/04/26 07:44:00;;;;;;;10.30;7.07;;;9.00;99.90;;;;;;5044884;28;20566;-61
2022/04/26 07:46:28;;;;;;;9.87;7.07;;;9.10;99.90;;;;;;5030985;28;20206;-61
2022/04/26 07:48:55;;;;;;;7.63;6.50;;;9.20;99.90;;;;;;5038044;28;20208;-62
2022/04/26 07:51:22;;;;;;;9.60;7.10;;;9.20;99.90;;;;;;5042037;28;20201;-62
2022/04/26 07:53:50;;;;;;;12.37;6.53;;;9.40;99.90;;;;;;5038951;28;20205;-60
2022/04/26 07:56:17;;;;;;;9.37;7.07;;;9.40;99.90;;;;;;5040929;28;20223;-60
2022/04/26 07:58:44;;;;;;;7.50;6.57;;;9.40;99.90;;;;;;5044124;28;20221;-60
2022/04/26 08:01:11;;;;;;;7.50;5.87;;;9.50;99.90;;;;;;5043219;28;20733;-60
2022/04/26 08:03:40;;;;;;;8.07;5.90;;;9.60;99.90;;;;;;4970466;28;21250;-60
2022/04/26 08:06:07;;;;;;;9.00;6.27;;;9.70;99.90;;;;;;5007338;28;20207;-60
2022/04/26 08:08:34;;;;;;;8.90;6.87;;;9.80;99.90;;;;;;4984415;28;20754;-61
2022/04/26 08:11:02;;;;;;;8.23;6.10;;;9.90;99.90;;;;;;4993689;28;20632;-60
2022/04/26 08:13:30;;;;;;;8.70;6.57;;;10.00;99.90;;;;;;5002857;28;20308;-61
2022/04/26 08:15:57;;;;;;;10.33;6.60;;;10.00;99.90;;;;;;5001513;28;20647;-60
2022/04/26 08:18:24;;;;;;;13.00;6.60;;;10.10;99.90;;;;;;4988324;28;20517;-60
2022/04/26 08:20:53;;;;;;;10.17;6.73;;;10.10;99.90;;;;;;5002204;28;20234;-60
2022/04/26 08:23:20;;;;;;;14.80;7.20;;;10.00;99.90;;;;;;4998056;28;20200;-63
2022/04/26 08:28:33;;;;;;;7.87;6.40;;;10.20;99.90;;;;;;5045666;28;20213;-60
2022/04/26 08:31:00;;;;;;;10.03;6.00;;;10.30;99.90;;;;;;5042469;28;20294;-60
2022/04/26 08:33:28;;;;;;;12.43;6.00;;;10.30;99.90;;;;;;5043553;28;20212;-61
2022/04/26 08:35:57;;;;;;;17.53;7.00;;;10.30;99.90;;;;;;5027029;28;20216;-59
2022/04/26 08:38:24;;;;;;;9.43;6.00;;;10.30;99.90;;;;;;5035981;28;20243;-58
2022/04/26 08:40:51;;;;;;;9.20;5.27;;;10.30;99.90;;;;;;5032152;28;20231;-60
2022/04/26 08:43:19;;;;;;;7.27;5.07;;;10.40;99.90;;;;;;5035091;28;20235;-61
2022/04/26 08:45:47;;;;;;;7.63;5.10;;;10.70;99.90;;;;;;5052091;28;20211;-61
2022/04/26 08:51:03;;;;;;;5.87;5.13;;;10.90;99.90;;;;;;5030098;28;20215;-59
2022/04/26 08:53:32;;;;;;;5.88;5.05;;;10.90;99.90;;;;;;5042724;28;20209;-60
2022/04/26 08:56:01;;;;;;;6.83;4.87;;;11.00;99.90;;;;;;5033520;28;20212;-60
2022/04/26 08:58:31;;;;;;;10.18;4.93;;;11.00;99.90;;;;;;5039474;28;20690;-60
2022/04/26 09:01:19;;;;;;;6.40;4.50;;;11.20;99.90;;;;;;5040614;28;20322;-60
2022/04/26 09:03:59;;;;;;;6.32;4.95;;;11.30;99.90;;;;;;5042803;28;20359;-61
2022/04/26 09:06:39;;;;;;;6.68;4.70;;;11.40;99.90;;;;;;5025413;28;20291;-60
2022/04/26 09:09:11;;;;;;;6.70;4.72;;;11.50;99.90;;;;;;5034592;28;20251;-60
2022/04/26 09:11:39;;;;;;;8.10;4.90;;;11.60;99.90;;;;;;5025153;28;20224;-61
2022/04/26 09:14:08;;;;;;;6.47;4.90;;;11.70;99.90;;;;;;5045784;28;20671;-60
2022/04/26 09:16:36;;;;;;;6.15;4.85;;;11.90;99.90;;;;;;5055515;28;20184;-58
2022/04/26 09:19:06;;;;;;;8.68;4.80;;;11.90;99.90;;;;;;5071545;28;20316;-60
2022/04/26 09:21:34;;;;;;;5.50;4.50;;;11.80;99.90;;;;;;5052872;28;20278;-60
2022/04/26 09:24:04;;;;;;;6.75;4.82;;;11.90;99.90;;;;;;5017551;28;20211;-61
2022/04/26 09:26:36;;;;;;;6.85;4.07;;;12.00;99.90;;;;;;5031933;28;20644;-61
2022/04/26 09:29:04;;;;;;;5.03;4.47;;;12.10;99.90;;;;;;5035151;28;20203;-61
2022/04/26 09:31:33;;;;;;;6.82;4.20;;;12.30;99.90;;;;;;5048126;28;20204;-60
2022/04/26 09:34:05;;;;;;;9.48;4.68;;;12.30;99.90;;;;;;5041491;28;20197;-61
2022/04/26 09:36:35;;;;;;;5.85;4.45;;;12.40;99.90;;;;;;5043784;28;21319;-61
2022/04/26 09:39:07;;;;;;;5.28;4.03;;;12.30;99.90;;;;;;5022521;28;20205;-62
2022/04/26 09:41:34;;;;;;;5.07;3.67;;;12.30;99.90;;;;;;5029737;28;20228;-60
2022/04/26 09:44:04;;;;;;;4.38;3.47;;;12.30;99.90;;;;;;5013222;28;20250;-60
2022/04/26 09:46:49;;;;;;;5.97;3.33;;;12.40;99.90;;;;;;5037419;28;20226;-60
2022/04/26 09:49:19;;;;;;;4.00;3.50;;;12.50;99.90;;;;;;5025720;28;20210;-60
2022/04/26 09:51:46;;;;;;;6.63;3.92;;;12.50;99.90;;;;;;5037992;28;20205;-61
2022/04/26 09:54:15;;;;;;;5.38;3.78;;;12.50;99.90;;;;;;5023988;28;20733;-61
2022/04/26 09:56:45;;;;;;;4.88;3.33;;;12.60;99.90;;;;;;5039221;28;20197;-61
2022/04/26 09:59:16;;;;;;;5.70;3.78;;;12.60;99.90;;;;;;5030101;28;20305;-61
2022/04/26 10:01:46;;;;;;;8.57;4.70;;;12.60;99.90;;;;;;5043033;28;20707;-61
2022/04/26 10:04:19;;;;;;;7.63;4.80;;;12.80;99.90;;;;;;5036611;28;20224;-61
2022/04/26 10:06:48;;;;;;;6.38;5.07;;;12.80;99.90;;;;;;5051730;28;20204;-61
2022/04/26 10:09:17;;;;;;;9.57;5.07;;;12.60;99.90;;;;;;5022489;28;20222;-61
2022/04/26 10:11:44;;;;;;;6.80;5.28;;;12.60;99.90;;;;;;5042699;28;20669;-61
2022/04/26 10:14:13;;;;;;;7.40;5.47;;;12.70;99.90;;;;;;5024734;28;20599;-61
2022/04/26 10:16:40;;;;;;;9.85;6.20;;;12.70;99.90;;;;;;5047124;28;20800;-61
2022/04/26 10:19:09;;;;;;;7.03;5.53;;;12.80;99.90;;;;;;5035425;28;20205;-61
2022/04/26 10:21:49;;;;;;;7.32;6.38;;;12.80;99.90;;;;;;5042940;28;20259;-61
2022/04/26 10:24:23;;;;;;;9.27;5.55;;;12.80;99.90;;;;;;5021050;28;20257;-61
2022/04/26 10:26:52;;;;;;;7.38;6.03;;;13.00;99.90;;;;;;5034349;28;20197;-61
2022/04/26 10:29:21;;;;;;;7.35;6.20;;;12.90;99.90;;;;;;5018850;28;20699;-61
2022/04/26 10:31:50;;;;;;;8.43;6.15;;;13.00;99.90;;;;;;5044005;28;20209;-61
2022/04/26 10:34:34;;;;;;;9.65;5.60;;;12.70;99.90;;;;;;5029945;28;20939;-61
2022/04/26 10:37:21;;;;;;;10.48;7.07;;;12.70;99.90;;;;;;5036491;28;20220;-61
2022/04/26 10:40:00;;;;;;;9.10;6.60;;;12.60;99.90;;;;;;5031961;28;20229;-60
2022/04/26 10:42:29;;;;;;;12.82;6.00;;;12.50;99.90;;;;;;5034713;28;20217;-60
2022/04/26 10:45:07;;;;;;;8.00;6.40;;;12.60;99.90;;;;;;5013749;28;20237;-61
2022/04/26 10:47:34;;;;;;;8.70;5.72;;;12.90;99.90;;;;;;5038373;28;23699;-60
2022/04/26 10:50:02;;;;;;;9.48;7.10;;;12.90;99.90;;;;;;5036542;28;20206;-61
2022/04/26 10:52:43;;;;;;;8.73;6.45;;;12.70;99.90;;;;;;5045438;28;20213;-61
2022/04/26 10:55:26;;;;;;;11.98;6.85;;;12.80;99.90;;;;;;5037586;28;20205;-60
2022/04/26 10:57:55;;;;;;;9.02;6.40;;;12.90;99.90;;;;;;5044682;28;20232;-61
2022/04/26 11:00:37;;;;;;;9.77;6.40;;;13.10;99.90;;;;;;5034048;28;20236;-61
2022/04/26 11:03:10;;;;;;;9.52;5.80;;;13.00;99.90;;;;;;5034918;28;20881;-61
2022/04/26 11:05:37;;;;;;;16.17;6.07;;;13.00;99.90;;;;;;5043370;28;20212;-61
2022/04/26 11:08:05;;;;;;;11.98;6.75;;;13.10;99.90;;;;;;5050151;28;20207;-60
2022/04/26 11:13:21;;;;;;;7.22;6.38;;;13.00;99.90;;;;;;5050387;28;20207;-60
2022/04/26 11:15:48;;;;;;;12.60;7.32;;;13.00;99.90;;;;;;5039625;28;20208;-61
2022/04/26 11:18:20;;;;;;;7.22;5.82;;;12.90;99.90;;;;;;5050502;28;20240;-61
2022/04/26 11:20:48;;;;;;;8.80;5.88;;;12.90;99.90;;;;;;5031063;28;20221;-60
2022/04/26 11:29:31;;;;;;;10.27;5.70;;;13.10;99.90;;;;;;4988040;28;20203;-61
2022/04/26 11:31:58;;;;;;;8.20;6.20;;;13.30;99.90;;;;;;4975711;28;20298;-61
2022/04/26 11:34:46;;;;;;;8.40;5.63;;;13.20;99.90;;;;;;5014479;28;20201;-61
2022/04/26 11:37:14;;;;;;;12.50;5.82;;;13.00;99.90;;;;;;5044596;28;20656;-61
2022/04/26 11:39:43;;;;;;;7.88;5.63;;;13.00;99.90;;;;;;5042253;28;20212;-60
2022/04/26 11:42:12;;;;;;;8.05;4.90;;;13.00;99.90;;;;;;5016418;28;20378;-61
2022/04/26 11:44:56;;;;;;;8.18;4.65;;;12.90;99.90;;;;;;5045548;28;20209;-60
2022/04/26 11:47:42;;;;;;;10.32;5.28;;;13.00;99.90;;;;;;5024121;28;20390;-61
2022/04/26 11:50:13;;;;;;;8.02;4.78;;;13.00;99.90;;;;;;5049193;28;20299;-60
2022/04/26 11:52:41;;;;;;;8.75;5.15;;;13.10;99.90;;;;;;5028727;28;20217;-60
2022/04/26 11:55:18;;;;;;;7.78;5.00;;;13.10;99.90;;;;;;5027495;28;20221;-61
2022/04/26 11:57:47;;;;;;;9.23;5.05;;;13.00;99.90;;;;;;5036546;28;20942;-61
2022/04/26 12:00:15;;;;;;;7.18;4.78;;;12.90;99.90;;;;;;5035632;28;20208;-61
2022/04/26 12:02:42;;;;;;;11.93;5.38;;;12.90;99.90;;;;;;5017584;28;20201;-61
2022/04/26 12:05:10;;;;;;;12.18;5.63;;;12.80;99.90;;;;;;5019938;28;20221;-61
2022/04/26 12:07:37;;;;;;;10.95;5.18;;;12.80;99.90;;;;;;5053699;28;20268;-61
2022/04/26 12:10:24;;;;;;;9.90;5.32;;;12.70;99.90;;;;;;5060175;28;20320;-61
2022/04/26 12:12:56;;;;;;;12.63;5.82;;;12.70;99.90;;;;;;5041999;28;20221;-61
2022/04/26 12:15:28;;;;;;;7.93;4.80;;;12.80;99.90;;;;;;5034584;28;20230;-61
2022/04/26 12:18:10;;;;;;;8.43;5.57;;;12.90;99.90;;;;;;5039068;28;20228;-61
2022/04/26 12:20:39;;;;;;;11.88;5.10;;;13.00;99.90;;;;;;5028960;28;20225;-61
2022/04/26 12:23:07;;;;;;;7.72;5.05;;;13.00;99.90;;;;;;5033965;28;20282;-61
2022/04/26 12:25:35;;;;;;;10.52;5.43;;;13.10;99.90;;;;;;5050169;28;21189;-61
2022/04/26 12:28:08;;;;;;;8.32;5.05;;;13.10;99.90;;;;;;5023234;28;20271;-60
2022/04/26 12:30:38;;;;;;;8.65;4.82;;;13.00;99.90;;;;;;5039589;28;20327;-61
2022/04/26 12:33:08;;;;;;;8.15;4.60;;;12.80;99.90;;;;;;5032741;28;20211;-61
2022/04/26 12:35:35;;;;;;;8.30;5.03;;;12.80;99.90;;;;;;5032644;28;20209;-61
2022/04/26 12:38:10;;;;;;;6.65;4.57;;;12.80;99.90;;;;;;5036921;28;20712;-61
2022/04/26 12:40:37;;;;;;;6.75;4.40;;;12.70;99.90;;;;;;4998540;28;20224;-61
2022/04/26 12:43:28;;;;;;;11.98;4.78;;;12.80;99.90;;;;;;5021238;28;20229;-61
2022/04/26 12:45:59;;;;;;;6.40;4.72;;;12.90;99.90;;;;;;5001101;28;20255;-62
2022/04/26 12:51:20;;;;;;;7.22;4.10;;;12.70;99.90;;;;;;5026240;28;20603;-61
2022/04/26 12:53:49;;;;;;;7.75;4.75;;;12.70;99.90;;;;;;5042446;28;21062;-61
2022/04/26 12:56:17;;;;;;;7.85;4.68;;;12.80;99.90;;;;;;5024305;28;20208;-60
2022/04/26 12:58:48;;;;;;;10.32;4.38;;;12.70;99.90;;;;;;5012911;28;20202;-60
2022/04/26 13:01:17;;;;;;;6.75;4.25;;;12.60;99.90;;;;;;5000081;28;20751;-60
2022/04/26 13:03:47;;;;;;;6.47;4.30;;;12.50;99.90;;;;;;5024312;28;20221;-61
2022/04/26 13:06:16;;;;;;;11.27;4.88;;;12.60;99.90;;;;;;5003282;28;21162;-60
2022/04/26 13:08:45;;;;;;;7.55;5.10;;;12.70;99.90;;;;;;5041684;28;20221;-61
2022/04/26 13:11:14;;;;;;;9.32;5.18;;;12.60;99.90;;;;;;5029808;28;20224;-60
2022/04/26 13:13:42;;;;;;;12.55;5.68;;;12.50;99.90;;;;;;5016211;28;20239;-61
2022/04/26 13:16:10;;;;;;;8.40;5.30;;;12.70;99.90;;;;;;4996897;28;20220;-61
2022/04/26 13:18:38;;;;;;;7.75;5.22;;;12.60;99.90;;;;;;5032119;28;20229;-60
2022/04/26 13:21:06;;;;;;;11.88;5.57;;;12.60;99.90;;;;;;5022441;28;20251;-60
2022/04/26 13:23:34;;;;;;;8.65;5.80;;;12.50;99.90;;;;;;5039792;28;20208;-60
2022/04/26 13:26:03;;;;;;;9.20;5.18;;;12.40;99.90;;;;;;5029959;28;20223;-60
2022/04/26 13:28:30;;;;;;;7.65;4.82;;;12.50;99.90;;;;;;5035703;28;20225;-61
2022/04/26 13:30:57;;;;;;;12.18;4.90;;;12.50;99.90;;;;;;5022963;28;20225;-61
2022/04/26 13:33:25;;;;;;;6.97;4.53;;;12.50;99.90;;;;;;5023792;28;20230;-61
2022/04/26 13:35:56;;;;;;;8.35;4.60;;;12.60;99.90;;;;;;5018387;28;20223;-61
2022/04/26 13:38:23;;;;;;;9.95;5.13;;;12.70;99.90;;;;;;5008777;28;20766;-61
2022/04/26 13:40:52;;;;;;;9.90;4.72;;;12.80;99.90;;;;;;5044295;28;20234;-61
2022/04/26 13:43:21;;;;;;;7.40;4.53;;;12.70;99.90;;;;;;5024263;28;20240;-62
2022/04/26 13:45:48;;;;;;;13.88;5.45;;;12.80;99.90;;;;;;5021144;28;20708;-61
2022/04/26 13:48:15;;;;;;;6.93;4.75;;;12.80;99.90;;;;;;5023265;28;20232;-61
2022/04/26 13:50:44;;;;;;;10.18;5.57;;;12.90;99.90;;;;;;5028552;28;20225;-61
2022/04/26 13:53:11;;;;;;;7.85;4.90;;;13.00;99.90;;;;;;5020190;28;20228;-61
2022/04/26 13:55:37;;;;;;;9.02;4.80;;;12.80;99.90;;;;;;5027908;28;20224;-61
2022/04/26 13:58:08;;;;;;;5.82;4.70;;;12.80;99.90;;;;;;5027730;28;20221;-61
2022/04/26 14:00:36;;;;;;;7.30;4.68;;;12.80;99.90;;;;;;5016161;28;20275;-60
2022/04/26 14:03:06;;;;;;;7.10;4.35;;;12.70;99.90;;;;;;5024275;28;20232;-61
2022/04/26 14:05:34;;;;;;;9.70;4.60;;;12.70;99.90;;;;;;5034684;28;20220;-61
2022/04/26 14:08:03;;;;;;;7.03;4.00;;;12.60;99.90;;;;;;5008010;28;20702;-62
2022/04/26 14:10:30;;;;;;;7.85;4.05;;;12.70;99.90;;;;;;5035749;28;20225;-61
2022/04/26 14:12:59;;;;;;;10.40;4.57;;;12.70;99.90;;;;;;5033715;28;20347;-61
2022/04/26 14:23:42;;;;;;;6.72;4.63;;;12.60;99.90;;;;;;5013991;28;20251;-61
2022/04/26 14:26:09;;;;;;;8.52;4.35;;;12.50;99.90;;;;;;5042514;28;20216;-60
2022/04/26 14:28:36;;;;;;;9.15;4.85;;;12.50;99.90;;;;;;5011497;28;20965;-61
2022/04/26 14:31:03;;;;;;;6.60;4.53;;;12.70;99.90;;;;;;5018864;28;20329;-61
2022/04/26 14:33:32;;;;;;;11.55;4.43;;;12.70;99.90;;;;;;5007826;28;21821;-61
2022/04/26 14:35:59;;;;;;;8.88;4.15;;;12.70;99.90;;;;;;5051773;28;20229;-61
2022/04/26 14:38:27;;;;;;;6.80;4.20;;;12.70;99.90;;;;;;5040913;28;20197;-61
2022/04/26 14:40:55;;;;;;;7.43;4.25;;;12.70;99.90;;;;;;5051177;28;20298;-61
2022/04/26 14:43:23;;;;;;;5.18;3.90;;;12.80;99.90;;;;;;5042249;28;20228;-61
2022/04/26 14:45:51;;;;;;;7.50;3.65;;;12.70;99.90;;;;;;5047512;28;20553;-61
2022/04/26 14:48:18;;;;;;;7.68;3.92;;;12.60;99.90;;;;;;5031150;28;20228;-61
2022/04/26 14:50:45;;;;;;;9.30;3.70;;;12.70;99.90;;;;;;5063967;28;20200;-61
2022/04/26 14:53:13;;;;;;;8.57;3.50;;;12.80;99.90;;;;;;5061169;28;20219;-60
2022/04/26 14:55:41;;;;;;;7.50;3.92;;;12.80;99.90;;;;;;5046135;28;20860;-61
2022/04/26 14:58:11;;;;;;;8.27;3.63;;;12.70;99.90;;;;;;5042674;28;20211;-61
2022/04/26 15:00:38;;;;;;;9.48;3.90;;;12.80;99.90;;;;;;5026796;28;20224;-61
2022/04/26 15:03:05;;;;;;;7.93;3.50;;;12.60;99.90;;;;;;5054305;28;20257;-61
2022/04/26 15:05:33;;;;;;;6.80;3.60;;;12.50;99.90;;;;;;5031894;28;20253;-60
2022/04/26 15:10:45;;;;;;;5.50;3.10;;;12.40;99.90;;;;;;5031252;28;20658;-61
2022/04/26 15:18:48;;;;;;;7.35;3.28;;;12.60;99.90;;;;;;5030200;28;20224;-61
2022/04/26 15:21:16;;;;;;;7.88;3.28;;;12.60;99.90;;;;;;5022829;28;20214;-61
2022/04/26 15:23:43;;;;;;;5.78;3.60;;;12.50;99.90;;;;;;5047578;28;20226;-61
2022/04/26 15:26:11;;;;;;;3.70;2.70;;;12.70;99.90;;;;;;5031934;28;20209;-61
2022/04/26 15:28:39;;;;;;;6.88;2.92;;;12.60;99.90;;;;;;5042044;28;20203;-61
2022/04/26 15:31:06;;;;;;;8.77;3.03;;;12.40;99.90;;;;;;5023639;28;20208;-60
2022/04/26 15:33:33;;;;;;;9.23;3.78;;;12.40;99.90;;;;;;5034823;28;20221;-60
2022/04/26 15:36:00;;;;;;;5.63;2.92;;;12.20;99.90;;;;;;5033636;28;20232;-60
2022/04/26 15:38:27;;;;;;;5.07;2.55;;;12.00;99.90;;;;;;5044569;28;20252;-61
2022/04/26 15:41:01;;;;;;;7.13;3.10;;;12.00;99.90;;;;;;5040093;28;20208;-60
2022/04/26 15:43:30;;;;;;;6.18;2.83;;;12.00;99.90;;;;;;5045686;28;20228;-60
2022/04/26 15:45:58;;;;;;;9.43;2.75;;;12.00;99.90;;;;;;5023719;28;20357;-60
2022/04/26 15:48:25;;;;;;;5.38;2.80;;;12.00;99.90;;;;;;5027050;28;20306;-60
2022/04/26 15:50:52;;;;;;;6.53;2.50;;;12.00;99.90;;;;;;5014925;28;20225;-60
2022/04/26 15:53:19;;;;;;;7.38;2.97;;;11.80;99.90;;;;;;5009293;28;20221;-60
2022/04/26 15:55:47;;;;;;;6.05;3.15;;;11.80;99.90;;;;;;5023387;28;20231;-60
2022/04/26 15:58:14;;;;;;;5.30;2.58;;;11.70;99.90;;;;;;5004534;28;20310;-61
2022/04/26 16:00:41;;;;;;;4.47;2.83;;;11.60;99.90;;;;;;5024623;28;20299;-60
2022/04/26 16:03:10;;;;;;;7.38;2.97;;;11.50;99.90;;;;;;5030472;28;20406;-60
2022/04/26 16:05:37;;;;;;;3.87;2.50;;;11.40;99.90;;;;;;5032677;28;20223;-61
2022/04/26 16:08:05;;;;;;;7.63;2.75;;;11.30;99.90;;;;;;5013853;28;20213;-60
2022/04/26 16:21:32;;;;;;;6.63;2.60;;;11.10;99.90;;;;;;5006629;28;21316;-61
2022/04/26 16:24:00;;;;;;;6.93;2.93;;;11.20;99.90;;;;;;5020781;28;20201;-60
2022/04/26 16:26:27;;;;;;;3.15;2.38;;;11.30;99.90;;;;;;5012685;28;20240;-60
2022/04/26 16:28:55;;;;;;;7.03;2.90;;;11.40;99.90;;;;;;5042038;28;20339;-60
2022/04/26 16:31:28;;;;;;;4.65;3.42;;;11.40;99.90;;;;;;5034724;28;20258;-61
2022/04/26 16:33:56;;;;;;;7.17;2.73;;;11.40;99.90;;;;;;5029486;28;20227;-61
2022/04/26 16:36:24;;;;;;;9.70;2.80;;;11.20;99.90;;;;;;5027448;28;21010;-61
2022/04/26 16:38:51;;;;;;;4.23;2.40;;;11.20;99.90;;;;;;5022960;28;20208;-60
2022/04/26 16:41:18;;;;;;;8.97;2.70;;;11.20;99.90;;;;;;5030115;28;20219;-60
2022/04/26 16:43:46;;;;;;;4.00;2.70;;;11.20;99.90;;;;;;5048012;28;20697;-61
2022/04/26 16:46:15;;;;;;;6.57;2.73;;;11.30;99.90;;;;;;5020021;28;20213;-61
2022/04/26 16:48:42;;;;;;;9.37;3.07;;;11.10;99.90;;;;;;5027479;28;20228;-61
2022/04/26 16:51:11;;;;;;;5.43;2.40;;;11.00;99.90;;;;;;5031111;28;20776;-60
2022/04/26 16:53:38;;;;;;;5.53;2.83;;;10.90;99.90;;;;;;5033139;28;20200;-61
2022/04/26 16:56:06;;;;;;;5.10;2.70;;;11.10;99.90;;;;;;5026916;28;20208;-61
2022/04/26 16:58:32;;;;;;;6.97;2.50;;;11.10;99.90;;;;;;5020694;28;20961;-58
2022/04/26 17:01:00;;;;;;;4.85;2.60;;;11.10;99.90;;;;;;5036072;28;20285;-59
2022/04/26 17:03:27;;;;;;;3.60;2.13;;;11.00;99.90;;;;;;5016320;28;21160;-60
2022/04/26 17:05:54;;;;;;;6.27;2.67;;;11.10;99.90;;;;;;5026789;28;20236;-60
2022/04/26 17:08:22;;;;;;;5.80;3.20;;;11.10;99.90;;;;;;5034017;28;20223;-60
2022/04/26 17:10:50;;;;;;;8.03;2.83;;;11.10;99.90;;;;;;5034087;28;20225;-60
2022/04/26 17:13:18;;;;;;;5.70;2.60;;;11.00;99.90;;;;;;5030995;28;20214;-60
2022/04/26 17:15:46;;;;;;;7.13;2.63;;;11.10;99.90;;;;;;5052409;28;20201;-60
2022/04/26 17:18:14;;;;;;;5.87;3.27;;;10.80;99.90;;;;;;5028272;28;20205;-59
2022/04/26 17:20:41;;;;;;;5.17;2.80;;;10.80;99.90;;;;;;5036056;28;20208;-61
2022/04/26 17:23:09;;;;;;;4.70;2.37;;;10.70;99.90;;;;;;5029616;28;20228;-60